createdAt,value
2023-01-01T00:01:48.132Z,100428.56
2023-01-01T00:05:51.311Z,100422.13
2023-01-01T00:10:13.060Z,100428.03
2023-01-01T00:14:16.061Z,100420.94
2023-01-01T00:18:19.066Z,100427.81
2023-01-01T00:22:53.232Z,100428.69
2023-01-01T00:26:46.719Z,100445.19
2023-01-01T00:30:49.947Z,100436.22
2023-01-01T00:34:52.962Z,100429.22
2023-01-01T00:38:56.425Z,100424.72
2023-01-01T00:43:00.763Z,100414.22
2023-01-01T00:47:04.109Z,100406.47
2023-01-01T00:51:07.884Z,100411.56
2023-01-01T00:55:11.388Z,100414.69
2023-01-01T00:59:15.787Z,100404.97
2023-01-01T01:03:29.064Z,100392.13
2023-01-01T01:07:39.270Z,100421.84
2023-01-01T01:11:42.480Z,100442.94
2023-01-01T01:15:51.609Z,100447.66
2023-01-01T01:19:58.419Z,100441.56
2023-01-01T01:24:03.219Z,100441.75
2023-01-01T01:28:06.296Z,100433.44
2023-01-01T01:32:11.695Z,100426.81
2023-01-01T01:36:16.246Z,100424.38
2023-01-01T01:40:19.571Z,100414.03
2023-01-01T01:44:52.479Z,100399.22
2023-01-01T01:49:01.725Z,100394.84
2023-01-01T01:53:09.654Z,100381.97
2023-01-01T01:57:14.646Z,100394.00
2023-01-01T02:01:18.210Z,100393.00
2023-01-01T02:05:23.705Z,100400.66
2023-01-01T02:09:26.980Z,100393.53
2023-01-01T02:13:30.505Z,100395.06
2023-01-01T02:17:40.369Z,100393.25
2023-01-01T02:22:03.559Z,100401.78
2023-01-01T02:26:23.774Z,100403.44
2023-01-01T02:30:31.889Z,100406.91
2023-01-01T02:34:39.393Z,100408.72
2023-01-01T02:38:46.768Z,100402.72
2023-01-01T02:42:50.471Z,100408.84
2023-01-01T02:46:55.022Z,100414.13
2023-01-01T02:51:04.991Z,100425.50
2023-01-01T02:55:18.939Z,100423.03
2023-01-01T02:59:48.754Z,100421.00
2023-01-01T03:04:03.345Z,100441.28
2023-01-01T03:08:12.105Z,100454.78
2023-01-01T03:12:39.466Z,100463.41
2023-01-01T03:16:48.715Z,100466.06
2023-01-01T03:20:56.290Z,100467.81
2023-01-01T03:25:02.706Z,100468.03
2023-01-01T03:29:10.182Z,100470.50
2023-01-01T03:33:19.859Z,100473.94
2023-01-01T03:37:31.123Z,100481.69
2023-01-01T03:41:39.083Z,100493.81
2023-01-01T03:45:47.191Z,100498.03
2023-01-01T03:49:50.211Z,100519.78
2023-01-01T03:53:58.363Z,100525.06
2023-01-01T03:58:06.889Z,100515.59
2023-01-01T04:02:15.175Z,100503.53
2023-01-01T04:06:18.594Z,100496.66
2023-01-01T04:10:24.024Z,100498.56
2023-01-01T04:14:29.496Z,100477.28
2023-01-01T04:18:32.488Z,100490.94
2023-01-01T04:22:35.746Z,100489.91
2023-01-01T04:26:40.108Z,100498.47
2023-01-01T04:34:45.018Z,100518.47
2023-01-01T04:38:48.034Z,100512.53
2023-01-01T04:42:54.743Z,100515.31
2023-01-01T04:47:00.253Z,100517.09
2023-01-01T04:51:06.033Z,100514.34
2023-01-01T04:55:09.742Z,100515.06
2023-01-01T04:59:14.196Z,100527.66
2023-01-01T05:03:17.806Z,100521.34
2023-01-01T05:07:20.867Z,100512.44
2023-01-01T05:11:25.657Z,100522.84
2023-01-01T05:15:30.026Z,100525.53
2023-01-01T05:19:32.994Z,100520.47
2023-01-01T05:23:36.311Z,100525.81
2023-01-01T05:27:39.462Z,100536.97
2023-01-01T05:31:43.935Z,100544.75
2023-01-01T05:35:47.314Z,100541.28
2023-01-01T05:39:50.296Z,100549.16
2023-01-01T05:43:54.408Z,100552.56
2023-01-01T05:47:59.088Z,100547.38
2023-01-01T05:52:02.095Z,100549.00
2023-01-01T05:56:06.064Z,100556.91
2023-01-01T06:00:10.088Z,100571.63
2023-01-01T06:04:15.008Z,100565.50
2023-01-01T06:08:18.059Z,100573.38
2023-01-01T06:12:22.089Z,100578.88
2023-01-01T06:16:26.265Z,100572.97
2023-01-01T06:20:31.040Z,100576.69
2023-01-01T06:24:38.974Z,100584.56
2023-01-01T06:28:43.607Z,100609.09
2023-01-01T06:32:46.602Z,100607.25
2023-01-01T06:36:50.979Z,100596.13
2023-01-01T06:40:58.035Z,100582.25
2023-01-01T06:45:01.024Z,100577.16
2023-01-01T06:49:06.135Z,100586.97
2023-01-01T06:53:10.533Z,100592.03
2023-01-01T06:57:13.506Z,100585.81
2023-01-01T07:01:19.113Z,100578.63
2023-01-01T07:05:22.434Z,100610.66
2023-01-01T07:09:26.804Z,100616.34
2023-01-01T07:13:31.202Z,100615.44
2023-01-01T07:17:35.679Z,100607.72
2023-01-01T07:21:43.513Z,100631.25
2023-01-01T07:25:50.424Z,100646.94
2023-01-01T07:29:53.382Z,100660.03
2023-01-01T07:33:56.647Z,100661.91
2023-01-01T07:37:59.653Z,100662.84
2023-01-01T07:42:10.651Z,100671.84
2023-01-01T07:46:16.320Z,100678.88
2023-01-01T07:50:19.614Z,100679.19
2023-01-01T07:54:22.662Z,100691.34
2023-01-01T07:58:27.042Z,100688.91
2023-01-01T08:02:30.127Z,100686.38
2023-01-01T08:06:33.387Z,100699.53
2023-01-01T08:10:36.399Z,100697.97
2023-01-01T08:14:40.762Z,100696.31
2023-01-01T08:18:43.730Z,100698.91
2023-01-01T08:22:46.964Z,100695.50
2023-01-01T08:26:51.300Z,100704.28
2023-01-01T08:30:55.898Z,100703.50
2023-01-01T08:34:58.885Z,100698.28
2023-01-01T08:39:02.340Z,100707.97
2023-01-01T08:43:05.361Z,100706.19
2023-01-01T08:47:18.190Z,100703.88
2023-01-01T08:51:21.169Z,100689.19
2023-01-01T08:55:24.171Z,100708.53
2023-01-01T08:59:27.285Z,100707.00
2023-01-01T09:03:31.713Z,100704.53
2023-01-01T09:07:34.769Z,100704.00
2023-01-01T09:11:38.211Z,100708.72
2023-01-01T09:15:42.776Z,100733.50
2023-01-01T09:19:47.162Z,100720.53
2023-01-01T09:23:50.187Z,100719.97
2023-01-01T09:27:58.713Z,100728.22
2023-01-01T09:32:01.847Z,100735.66
2023-01-01T09:36:17.640Z,100739.63
2023-01-01T09:40:29.822Z,100739.91
2023-01-01T09:45:22.664Z,100743.75
2023-01-01T09:49:33.666Z,100734.47
2023-01-01T09:53:42.767Z,100728.78
2023-01-01T09:57:46.251Z,100728.50
2023-01-01T10:01:58.527Z,100722.28
2023-01-01T10:06:10.663Z,100717.84
2023-01-01T10:10:29.246Z,100710.84
2023-01-01T10:14:35.366Z,100704.56
2023-01-01T10:18:41.055Z,100708.72
2023-01-01T10:22:48.257Z,100711.13
2023-01-01T10:26:55.495Z,100694.13
2023-01-01T10:31:15.649Z,100697.25
2023-01-01T10:35:28.359Z,100703.78
2023-01-01T10:39:33.207Z,100701.50
2023-01-01T10:43:38.129Z,100712.25
2023-01-01T10:47:41.146Z,100711.56
2023-01-01T10:51:46.736Z,100711.75
2023-01-01T10:55:51.039Z,100699.72
2023-01-01T10:59:55.734Z,100694.66
2023-01-01T11:04:01.705Z,100700.09
2023-01-01T11:08:05.404Z,100686.34
2023-01-01T11:12:46.101Z,100683.88
2023-01-01T11:16:46.802Z,100688.50
2023-01-01T11:20:54.081Z,100689.53
2023-01-01T11:25:01.989Z,100690.50
2023-01-01T11:29:18.897Z,100688.84
2023-01-01T11:33:23.547Z,100675.81
2023-01-01T11:37:30.395Z,100673.31
2023-01-01T11:41:43.140Z,100683.94
2023-01-01T11:45:46.287Z,100681.44
2023-01-01T11:49:56.353Z,100678.06
2023-01-01T11:54:30.313Z,100672.97
2023-01-01T11:58:39.707Z,100672.25
2023-01-01T12:02:50.057Z,100662.81
2023-01-01T12:06:59.846Z,100658.69
2023-01-01T12:11:15.821Z,100653.81
2023-01-01T12:15:25.761Z,100655.00
2023-01-01T12:19:34.147Z,100661.38
2023-01-01T12:23:38.567Z,100666.88
2023-01-01T12:28:02.068Z,100658.34
2023-01-01T12:32:11.622Z,100657.63
2023-01-01T12:36:30.814Z,100649.94
2023-01-01T12:40:49.475Z,100654.53
2023-01-01T12:45:09.524Z,100655.47
2023-01-01T12:49:34.708Z,100650.34
2023-01-01T12:53:48.699Z,100646.16
2023-01-01T12:57:58.563Z,100647.19
2023-01-01T13:02:05.116Z,100635.13
2023-01-01T13:06:13.846Z,100636.94
2023-01-01T13:10:26.554Z,100642.34
2023-01-01T13:14:31.154Z,100638.06
2023-01-01T13:18:35.631Z,100647.81
2023-01-01T13:22:43.138Z,100651.34
2023-01-01T13:26:46.263Z,100646.16
2023-01-01T13:30:52.132Z,100642.66
2023-01-01T13:35:04.140Z,100643.63
2023-01-01T13:39:08.460Z,100646.28
2023-01-01T13:43:20.302Z,100655.91
2023-01-01T13:47:36.337Z,100654.19
2023-01-01T13:52:20.784Z,100656.00
2023-01-01T13:56:38.003Z,100661.25
2023-01-01T14:00:58.909Z,100663.91
2023-01-01T14:05:06.541Z,100667.38
2023-01-01T14:09:14.626Z,100679.59
2023-01-01T14:13:19.189Z,100685.75
2023-01-01T14:17:22.639Z,100686.63
2023-01-01T14:21:32.055Z,100680.44
2023-01-01T14:25:35.950Z,100695.31
2023-01-01T14:29:39.701Z,100710.19
2023-01-01T14:33:42.791Z,100696.13
2023-01-01T14:37:47.205Z,100705.69
2023-01-01T14:41:50.300Z,100698.56
2023-01-01T14:45:53.430Z,100705.50
2023-01-01T14:50:06.133Z,100715.00
2023-01-01T14:54:18.407Z,100720.16
2023-01-01T14:58:24.763Z,100720.88
2023-01-01T15:02:30.435Z,100722.56
2023-01-01T15:06:33.834Z,100731.72
2023-01-01T15:10:39.718Z,100721.97
2023-01-01T15:14:45.862Z,100736.56
2023-01-01T15:18:51.377Z,100739.00
2023-01-01T15:22:55.987Z,100744.13
2023-01-01T15:27:02.689Z,100738.59
2023-01-01T15:31:06.193Z,100734.78
2023-01-01T15:35:27.760Z,100742.28
2023-01-01T15:39:34.079Z,100746.22
2023-01-01T15:43:39.125Z,100748.59
2023-01-01T15:47:43.129Z,100744.88
2023-01-01T15:51:46.169Z,100743.91
2023-01-01T15:55:56.244Z,100740.13
2023-01-01T16:00:00.759Z,100740.00
2023-01-01T16:04:09.693Z,100741.59
2023-01-01T16:08:12.667Z,100747.69
2023-01-01T16:12:15.738Z,100752.84
2023-01-01T16:16:27.953Z,100750.13
2023-01-01T16:20:31.039Z,100762.34
2023-01-01T16:24:36.562Z,100766.78
2023-01-01T16:28:39.550Z,100759.78
2023-01-01T16:32:44.154Z,100762.31
2023-01-01T16:36:47.226Z,100751.66
2023-01-01T16:40:52.123Z,100757.69
2023-01-01T16:44:55.809Z,100769.72
2023-01-01T16:49:00.230Z,100773.09
2023-01-01T16:53:03.236Z,100776.53
2023-01-01T16:57:06.213Z,100784.34
2023-01-01T17:01:09.889Z,100789.53
2023-01-01T17:05:14.597Z,100778.78
2023-01-01T17:09:17.578Z,100785.75
2023-01-01T17:13:20.597Z,100790.03
2023-01-01T17:17:23.652Z,100788.22
2023-01-01T17:21:28.384Z,100793.38
2023-01-01T17:25:31.687Z,100784.47
2023-01-01T17:29:34.683Z,100790.41
2023-01-01T17:33:37.722Z,100793.78
2023-01-01T17:37:42.319Z,100794.56
2023-01-01T17:41:46.014Z,100786.56
2023-01-01T17:45:49.076Z,100782.91
2023-01-01T17:49:52.087Z,100787.97
2023-01-01T17:53:57.602Z,100782.59
2023-01-01T17:58:00.583Z,100792.00
2023-01-01T18:02:05.934Z,100797.13
2023-01-01T18:06:09.988Z,100797.81
2023-01-01T18:10:14.397Z,100801.09
2023-01-01T18:14:22.736Z,100793.03
2023-01-01T18:18:27.621Z,100801.47
2023-01-01T18:22:31.587Z,100796.94
2023-01-01T18:26:36.177Z,100796.06
2023-01-01T18:30:39.574Z,100791.66
2023-01-01T18:34:42.794Z,100794.25
2023-01-01T18:38:48.818Z,100793.31
2023-01-01T18:43:02.848Z,100783.59
2023-01-01T18:47:14.620Z,100781.81
2023-01-01T18:51:23.249Z,100793.06
2023-01-01T18:55:28.072Z,100792.91
2023-01-01T18:59:33.615Z,100795.63
2023-01-01T19:03:41.658Z,100799.19
2023-01-01T19:07:51.918Z,100792.28
2023-01-01T19:11:56.522Z,100784.47
2023-01-01T19:16:07.457Z,100792.28
2023-01-01T19:20:16.843Z,100781.69
2023-01-01T19:24:22.983Z,100786.91
2023-01-01T19:28:37.746Z,100791.06
2023-01-01T19:32:45.248Z,100778.75
2023-01-01T19:36:48.384Z,100788.28
2023-01-01T19:40:51.513Z,100779.50
2023-01-01T19:44:54.739Z,100781.19
2023-01-01T19:48:59.507Z,100786.28
2023-01-01T19:53:02.584Z,100790.59
2023-01-01T19:57:05.645Z,100793.97
2023-01-01T20:01:08.767Z,100781.75
2023-01-01T20:05:13.189Z,100785.19
2023-01-01T20:09:16.226Z,100774.59
2023-01-01T20:13:19.531Z,100776.28
2023-01-01T20:17:22.577Z,100774.44
2023-01-01T20:21:44.611Z,100771.84
2023-01-01T20:25:47.606Z,100777.06
2023-01-01T20:29:50.731Z,100774.44
2023-01-01T20:33:53.818Z,100773.72
2023-01-01T20:37:58.356Z,100767.81
2023-01-01T20:42:01.450Z,100771.47
2023-01-01T20:46:04.467Z,100770.78
2023-01-01T20:50:08.093Z,100770.16
2023-01-01T20:54:12.635Z,100774.59
2023-01-01T20:58:15.664Z,100783.38
2023-01-01T21:02:19.021Z,100777.38
2023-01-01T21:06:24.806Z,100772.19
2023-01-01T21:10:29.427Z,100772.34
2023-01-01T21:14:32.850Z,100769.88
2023-01-01T21:18:36.312Z,100778.78
2023-01-01T21:22:41.821Z,100775.34
2023-01-01T21:26:46.248Z,100772.00
2023-01-01T21:30:51.879Z,100762.34
2023-01-01T21:34:56.409Z,100758.91
2023-01-01T21:39:04.627Z,100749.41
2023-01-01T21:43:24.099Z,100761.72
2023-01-01T21:47:27.386Z,100760.13
2023-01-01T21:51:33.587Z,100758.47
2023-01-01T21:55:51.817Z,100753.31
2023-01-01T21:59:57.874Z,100755.13
2023-01-01T22:04:04.276Z,100743.84
2023-01-01T22:08:24.805Z,100743.91
2023-01-01T22:12:29.803Z,100745.69
2023-01-01T22:16:34.219Z,100749.19
2023-01-01T22:20:39.757Z,100749.25
2023-01-01T22:24:45.823Z,100735.38
2023-01-01T22:28:51.610Z,100740.69
2023-01-01T22:33:01.230Z,100746.91
2023-01-01T22:37:04.345Z,100752.19
2023-01-01T22:41:09.149Z,100748.81
2023-01-01T22:45:16.155Z,100745.34
2023-01-01T22:49:24.079Z,100732.28
2023-01-01T22:53:27.186Z,100730.59
2023-01-01T22:57:30.166Z,100735.06
2023-01-01T23:01:33.256Z,100727.31
2023-01-01T23:05:37.857Z,100724.78
2023-01-01T23:09:41.330Z,100726.56
2023-01-01T23:14:06.330Z,100717.88
2023-01-01T23:18:10.099Z,100709.97
2023-01-01T23:22:16.232Z,100702.97
2023-01-01T23:26:19.994Z,100697.78
2023-01-01T23:30:23.047Z,100707.47
2023-01-01T23:34:26.376Z,100701.44
2023-01-01T23:38:31.676Z,100699.59
2023-01-01T23:42:34.709Z,100696.09
2023-01-01T23:46:39.559Z,100685.63
2023-01-01T23:50:42.770Z,100675.25
2023-01-01T23:54:47.136Z,100657.75
2023-01-01T23:58:50.147Z,100657.75
